Terminal Aerodrome Forecast
Issued by NWS

Home | Current Version | Previous Version | Graphics & Text | Print | Product List | Glossary On
Versions: 1 2 3 4 5 6 7 8 9 10 11 12 13 14 15 16
000
FTUS43 KTOP 180933 AAA
TAFMHK
TAF AMD
KMHK 180933Z 1810/1906 30014G25KT P6SM SKC
     FM181200 31016G22KT P6SM BKN035
     FM181500 31020G29KT P6SM SCT030
     FM190100 34011KT P6SM FEW150=

USA.gov is the U.S. government's official web portal to all federal, state and local government web resources and services.